sensor_id;sensor_type;location;lat;lon;timestamp;pressure;altitude;pressure_sealevel;temperature
77331;BMP280;66405;48.328;7.820;2023-04-12T00:00:30;99425.50;;;12.03
77331;BMP280;66405;48.328;7.820;2023-04-12T00:02:56;99420.09;;;12.03
77331;BMP280;66405;48.328;7.820;2023-04-12T00:05:24;99412.69;;;12.03
77331;BMP280;66405;48.328;7.820;2023-04-12T00:07:52;99411.22;;;12.02
77331;BMP280;66405;48.328;7.820;2023-04-12T00:10:19;99400.41;;;12.02
77331;BMP280;66405;48.328;7.820;2023-04-12T00:12:45;99404.56;;;12.03
77331;BMP280;66405;48.328;7.820;2023-04-12T00:15:11;99404.84;;;12.06
77331;BMP280;66405;48.328;7.820;2023-04-12T00:17:36;99395.97;;;12.05
77331;BMP280;66405;48.328;7.820;2023-04-12T00:20:02;99392.06;;;12.06
77331;BMP280;66405;48.328;7.820;2023-04-12T00:22:35;99381.97;;;12.07
77331;BMP280;66405;48.328;7.820;2023-04-12T00:25:01;99370.88;;;12.04
77331;BMP280;66405;48.328;7.820;2023-04-12T00:27:26;99367.41;;;12.04
77331;BMP280;66405;48.328;7.820;2023-04-12T00:29:52;99353.13;;;12.03
77331;BMP280;66405;48.328;7.820;2023-04-12T00:32:17;99347.72;;;12.03
77331;BMP280;66405;48.328;7.820;2023-04-12T00:34:45;99346.97;;;12.03
77331;BMP280;66405;48.328;7.820;2023-04-12T00:37:10;99331.94;;;12.02
77331;BMP280;66405;48.328;7.820;2023-04-12T00:39:38;99334.63;;;12.02
77331;BMP280;66405;48.328;7.820;2023-04-12T00:42:04;99325.00;;;12.01
77331;BMP280;66405;48.328;7.820;2023-04-12T00:44:34;99328.50;;;12.01
77331;BMP280;66405;48.328;7.820;2023-04-12T00:47:00;99319.59;;;12.01
77331;BMP280;66405;48.328;7.820;2023-04-12T00:49:27;99325.78;;;12.01
77331;BMP280;66405;48.328;7.820;2023-04-12T00:52:03;99310.00;;;12.00
77331;BMP280;66405;48.328;7.820;2023-04-12T00:54:33;99306.81;;;12.01
77331;BMP280;66405;48.328;7.820;2023-04-12T00:57:02;99307.56;;;12.02
77331;BMP280;66405;48.328;7.820;2023-04-12T00:59:27;99307.56;;;12.02
77331;BMP280;66405;48.328;7.820;2023-04-12T01:01:54;99293.00;;;11.99
77331;BMP280;66405;48.328;7.820;2023-04-12T01:04:20;99296.91;;;11.98
77331;BMP280;66405;48.328;7.820;2023-04-12T01:17:37;99281.34;;;11.93
77331;BMP280;66405;48.328;7.820;2023-04-12T01:20:16;99275.16;;;11.93
77331;BMP280;66405;48.328;7.820;2023-04-12T01:27:58;99260.34;;;11.88
77331;BMP280;66405;48.328;7.820;2023-04-12T01:30:27;99257.38;;;11.86
77331;BMP280;66405;48.328;7.820;2023-04-12T01:32:54;99249.69;;;11.84
77331;BMP280;66405;48.328;7.820;2023-04-12T01:35:23;99247.75;;;11.85
77331;BMP280;66405;48.328;7.820;2023-04-12T01:37:51;99234.19;;;11.85
77331;BMP280;66405;48.328;7.820;2023-04-12T01:40:17;99238.13;;;11.84
77331;BMP280;66405;48.328;7.820;2023-04-12T01:42:44;99233.91;;;11.83
77331;BMP280;66405;48.328;7.820;2023-04-12T01:45:10;99219.63;;;11.82
77331;BMP280;66405;48.328;7.820;2023-04-12T01:47:36;99208.06;;;11.82
77331;BMP280;66405;48.328;7.820;2023-04-12T01:52:37;99196.22;;;11.79
77331;BMP280;66405;48.328;7.820;2023-04-12T01:55:06;99183.13;;;11.78
77331;BMP280;66405;48.328;7.820;2023-04-12T01:57:32;99180.91;;;11.76
77331;BMP280;66405;48.328;7.820;2023-04-12T01:59:59;99169.34;;;11.76
77331;BMP280;66405;48.328;7.820;2023-04-12T02:02:28;99172.31;;;11.78
77331;BMP280;66405;48.328;7.820;2023-04-12T02:04:53;99157.28;;;11.77
77331;BMP280;66405;48.328;7.820;2023-04-12T02:07:20;99160.44;;;11.75
77331;BMP280;66405;48.328;7.820;2023-04-12T02:09:46;99155.50;;;11.74
77331;BMP280;66405;48.328;7.820;2023-04-12T02:12:11;99154.03;;;11.73
77331;BMP280;66405;48.328;7.820;2023-04-12T02:14:37;99154.53;;;11.71
77331;BMP280;66405;48.328;7.820;2023-04-12T02:17:03;99137.22;;;11.68
77331;BMP280;66405;48.328;7.820;2023-04-12T02:19:30;99135.50;;;11.65
77331;BMP280;66405;48.328;7.820;2023-04-12T02:21:56;99132.22;;;11.61
77331;BMP280;66405;48.328;7.820;2023-04-12T02:24:22;99130.72;;;11.60
77331;BMP280;66405;48.328;7.820;2023-04-12T02:26:47;99133.41;;;11.60
77331;BMP280;66405;48.328;7.820;2023-04-12T02:29:16;99117.19;;;11.60
77331;BMP280;66405;48.328;7.820;2023-04-12T02:31:44;99112.97;;;11.59
77331;BMP280;66405;48.328;7.820;2023-04-12T02:34:10;99112.25;;;11.59
77331;BMP280;66405;48.328;7.820;2023-04-12T02:36:47;99114.47;;;11.60
77331;BMP280;66405;48.328;7.820;2023-04-12T02:39:12;99108.03;;;11.58
77331;BMP280;66405;48.328;7.820;2023-04-12T02:41:40;99104.63;;;11.57
77331;BMP280;66405;48.328;7.820;2023-04-12T02:44:10;99099.22;;;11.57
77331;BMP280;66405;48.328;7.820;2023-04-12T02:46:39;99096.22;;;11.55
77331;BMP280;66405;48.328;7.820;2023-04-12T02:49:04;99089.78;;;11.52
77331;BMP280;66405;48.328;7.820;2023-04-12T02:51:35;99078.97;;;11.52
77331;BMP280;66405;48.328;7.820;2023-04-12T02:54:03;99067.38;;;11.52
77331;BMP280;66405;48.328;7.820;2023-04-12T02:56:43;99064.41;;;11.50
77331;BMP280;66405;48.328;7.820;2023-04-12T02:59:28;99063.69;;;11.49
77331;BMP280;66405;48.328;7.820;2023-04-12T03:02:10;99054.06;;;11.48
77331;BMP280;66405;48.328;7.820;2023-04-12T03:04:36;99047.16;;;11.47
77331;BMP280;66405;48.328;7.820;2023-04-12T03:07:06;99044.44;;;11.47
77331;BMP280;66405;48.328;7.820;2023-04-12T03:09:38;99032.88;;;11.47
77331;BMP280;66405;48.328;7.820;2023-04-12T03:12:07;99030.91;;;11.47
77331;BMP280;66405;48.328;7.820;2023-04-12T03:14:38;99025.97;;;11.46
77331;BMP280;66405;48.328;7.820;2023-04-12T03:17:05;99026.72;;;11.46
77331;BMP280;66405;48.328;7.820;2023-04-12T03:19:31;99012.47;;;11.46
77331;BMP280;66405;48.328;7.820;2023-04-12T03:21:59;99010.78;;;11.48
77331;BMP280;66405;48.328;7.820;2023-04-12T03:24:26;99008.81;;;11.49
77331;BMP280;66405;48.328;7.820;2023-04-12T03:26:53;98990.63;;;11.49
77331;BMP280;66405;48.328;7.820;2023-04-12T03:29:23;98986.44;;;11.48
77331;BMP280;66405;48.328;7.820;2023-04-12T03:31:51;98979.81;;;11.49
77331;BMP280;66405;48.328;7.820;2023-04-12T03:34:16;98974.84;;;11.48
77331;BMP280;66405;48.328;7.820;2023-04-12T03:36:47;98971.88;;;11.46
77331;BMP280;66405;48.328;7.820;2023-04-12T03:39:36;98963.00;;;11.45
77331;BMP280;66405;48.328;7.820;2023-04-12T03:42:02;98963.00;;;11.45
77331;BMP280;66405;48.328;7.820;2023-04-12T03:44:28;98952.66;;;11.44
77331;BMP280;66405;48.328;7.820;2023-04-12T03:46:57;98950.69;;;11.44
77331;BMP280;66405;48.328;7.820;2023-04-12T03:49:25;98939.63;;;11.42
77331;BMP280;66405;48.328;7.820;2023-04-12T03:51:51;98933.72;;;11.44
77331;BMP280;66405;48.328;7.820;2023-04-12T03:54:17;98932.97;;;11.43
77331;BMP280;66405;48.328;7.820;2023-04-12T03:56:53;98930.75;;;11.42
77331;BMP280;66405;48.328;7.820;2023-04-12T03:59:25;98927.78;;;11.40
77331;BMP280;66405;48.328;7.820;2023-04-12T04:01:50;98917.44;;;11.38
77331;BMP280;66405;48.328;7.820;2023-04-12T04:04:16;98914.72;;;11.38
77331;BMP280;66405;48.328;7.820;2023-04-12T04:06:42;98913.22;;;11.37
77331;BMP280;66405;48.328;7.820;2023-04-12T04:09:08;98914.44;;;11.36
77331;BMP280;66405;48.328;7.820;2023-04-12T04:11:35;98912.50;;;11.36
77331;BMP280;66405;48.328;7.820;2023-04-12T04:14:05;98900.19;;;11.35
77331;BMP280;66405;48.328;7.820;2023-04-12T04:16:31;98911.72;;;11.36
77331;BMP280;66405;48.328;7.820;2023-04-12T04:19:01;98910.53;;;11.37
77331;BMP280;66405;48.328;7.820;2023-04-12T04:21:27;98914.44;;;11.36
77331;BMP280;66405;48.328;7.820;2023-04-12T04:23:58;98910.53;;;11.37
77331;BMP280;66405;48.328;7.820;2023-04-12T04:26:26;98904.63;;;11.39
77331;BMP280;66405;48.328;7.820;2023-04-12T04:29:03;98914.53;;;11.42
77331;BMP280;66405;48.328;7.820;2023-04-12T04:31:34;98911.09;;;11.41
77331;BMP280;66405;48.328;7.820;2023-04-12T04:34:03;98910.09;;;11.44
77331;BMP280;66405;48.328;7.820;2023-04-12T04:36:33;98914.78;;;11.44
77331;BMP280;66405;48.328;7.820;2023-04-12T04:38:59;98911.59;;;11.45
77331;BMP280;66405;48.328;7.820;2023-04-12T04:41:37;98913.84;;;11.47
77331;BMP280;66405;48.328;7.820;2023-04-12T04:44:11;98903.03;;;11.47
77331;BMP280;66405;48.328;7.820;2023-04-12T04:46:47;98897.88;;;11.49
77331;BMP280;66405;48.328;7.820;2023-04-12T04:49:13;98892.00;;;11.50
77331;BMP280;66405;48.328;7.820;2023-04-12T04:51:38;98890.03;;;11.51
77331;BMP280;66405;48.328;7.820;2023-04-12T04:54:04;98886.09;;;11.52
77331;BMP280;66405;48.328;7.820;2023-04-12T04:56:30;98880.97;;;11.54
77331;BMP280;66405;48.328;7.820;2023-04-12T04:58:56;98874.81;;;11.53
77331;BMP280;66405;48.328;7.820;2023-04-12T05:01:23;98875.84;;;11.56
77331;BMP280;66405;48.328;7.820;2023-04-12T05:03:53;98875.34;;;11.58
77331;BMP280;66405;48.328;7.820;2023-04-12T05:06:22;98876.34;;;11.60
77331;BMP280;66405;48.328;7.820;2023-04-12T05:08:47;98873.44;;;11.64
77331;BMP280;66405;48.328;7.820;2023-04-12T05:11:15;98865.59;;;11.66
77331;BMP280;66405;48.328;7.820;2023-04-12T05:13:41;98863.91;;;11.68
77331;BMP280;66405;48.328;7.820;2023-04-12T05:16:09;98859.53;;;11.71
77331;BMP280;66405;48.328;7.820;2023-04-12T05:18:38;98856.59;;;11.75
77331;BMP280;66405;48.328;7.820;2023-04-12T05:21:05;98844.81;;;11.78
77331;BMP280;66405;48.328;7.820;2023-04-12T05:23:41;98836.22;;;11.79
77331;BMP280;66405;48.328;7.820;2023-04-12T05:26:11;98839.19;;;11.81
77331;BMP280;66405;48.328;7.820;2023-04-12T05:28:43;98834.78;;;11.84
77331;BMP280;66405;48.328;7.820;2023-04-12T05:31:10;98840.00;;;11.88
77331;BMP280;66405;48.328;7.820;2023-04-12T05:33:37;98823.25;;;11.89
77331;BMP280;66405;48.328;7.820;2023-04-12T05:36:03;98815.69;;;11.93
77331;BMP280;66405;48.328;7.820;2023-04-12T05:38:29;98816.19;;;11.97
77331;BMP280;66405;48.328;7.820;2023-04-12T05:40:58;98802.91;;;11.99
77331;BMP280;66405;48.328;7.820;2023-04-12T05:43:29;98797.28;;;12.03
77331;BMP280;66405;48.328;7.820;2023-04-12T05:45:55;98802.47;;;12.07
77331;BMP280;66405;48.328;7.820;2023-04-12T05:48:22;98803.00;;;12.11
77331;BMP280;66405;48.328;7.820;2023-04-12T05:50:51;98795.88;;;12.13
77331;BMP280;66405;48.328;7.820;2023-04-12T05:53:17;98793.19;;;12.19
77331;BMP280;66405;48.328;7.820;2023-04-12T05:55:43;98791.78;;;12.24
77331;BMP280;66405;48.328;7.820;2023-04-12T05:58:08;98775.28;;;12.27
77331;BMP280;66405;48.328;7.820;2023-04-12T06:00:35;98769.41;;;12.29
77331;BMP280;66405;48.328;7.820;2023-04-12T06:03:00;98766.69;;;12.34
77331;BMP280;66405;48.328;7.820;2023-04-12T06:05:26;98767.97;;;12.39
77331;BMP280;66405;48.328;7.820;2023-04-12T06:07:52;98763.06;;;12.43
77331;BMP280;66405;48.328;7.820;2023-04-12T06:10:20;98766.53;;;12.49
77331;BMP280;66405;48.328;7.820;2023-04-12T06:12:49;98761.16;;;12.55
77331;BMP280;66405;48.328;7.820;2023-04-12T06:15:15;98750.38;;;12.61
77331;BMP280;66405;48.328;7.820;2023-04-12T06:17:41;98746.69;;;12.69
77331;BMP280;66405;48.328;7.820;2023-04-12T06:20:08;98748.69;;;12.75
77331;BMP280;66405;48.328;7.820;2023-04-12T06:22:36;98754.38;;;12.82
77331;BMP280;66405;48.328;7.820;2023-04-12T06:25:04;98752.44;;;12.88
77331;BMP280;66405;48.328;7.820;2023-04-12T06:27:30;98744.31;;;12.94
77331;BMP280;66405;48.328;7.820;2023-04-12T06:29:57;98744.34;;;13.00
77331;BMP280;66405;48.328;7.820;2023-04-12T06:32:23;98746.31;;;13.05
77331;BMP280;66405;48.328;7.820;2023-04-12T06:34:53;98740.41;;;13.12
77331;BMP280;66405;48.328;7.820;2023-04-12T06:37:20;98736.72;;;13.21
77331;BMP280;66405;48.328;7.820;2023-04-12T06:39:45;98737.00;;;13.29
77331;BMP280;66405;48.328;7.820;2023-04-12T06:42:12;98726.88;;;13.35
77331;BMP280;66405;48.328;7.820;2023-04-12T06:44:41;98733.06;;;13.41
77331;BMP280;66405;48.328;7.820;2023-04-12T06:47:07;98717.25;;;13.45
77331;BMP280;66405;48.328;7.820;2023-04-12T06:49:32;98731.59;;;13.51
77331;BMP280;66405;48.328;7.820;2023-04-12T06:52:00;98719.97;;;13.56
77331;BMP280;66405;48.328;7.820;2023-04-12T06:54:25;98705.16;;;13.63
77331;BMP280;66405;48.328;7.820;2023-04-12T06:56:51;98701.22;;;13.70
77331;BMP280;66405;48.328;7.820;2023-04-12T06:59:16;98691.59;;;13.74
77331;BMP280;66405;48.328;7.820;2023-04-12T07:01:44;98686.66;;;13.79
77331;BMP280;66405;48.328;7.820;2023-04-12T07:04:10;98678.50;;;13.84
77331;BMP280;66405;48.328;7.820;2023-04-12T07:06:38;98674.28;;;13.89
77331;BMP280;66405;48.328;7.820;2023-04-12T07:09:03;98674.00;;;13.98
77331;BMP280;66405;48.328;7.820;2023-04-12T07:11:32;98673.53;;;14.05
77331;BMP280;66405;48.328;7.820;2023-04-12T07:14:00;98672.03;;;14.10
77331;BMP280;66405;48.328;7.820;2023-04-12T07:16:28;98673.00;;;14.13
77331;BMP280;66405;48.328;7.820;2023-04-12T07:18:55;98665.34;;;14.11
77331;BMP280;66405;48.328;7.820;2023-04-12T07:21:20;98658.44;;;14.10
77331;BMP280;66405;48.328;7.820;2023-04-12T07:23:47;98653.28;;;14.06
77331;BMP280;66405;48.328;7.820;2023-04-12T07:26:15;98654.50;;;14.05
77331;BMP280;66405;48.328;7.820;2023-04-12T07:28:44;98667.59;;;14.07
77331;BMP280;66405;48.328;7.820;2023-04-12T07:31:11;98665.84;;;14.04
77331;BMP280;66405;48.328;7.820;2023-04-12T07:33:37;98664.16;;;14.01
77331;BMP280;66405;48.328;7.820;2023-04-12T07:36:03;98664.16;;;13.95
77331;BMP280;66405;48.328;7.820;2023-04-12T07:38:29;98665.66;;;13.90
77331;BMP280;66405;48.328;7.820;2023-04-12T07:40:55;98666.13;;;13.89
77331;BMP280;66405;48.328;7.820;2023-04-12T07:43:21;98671.56;;;13.89
77331;BMP280;66405;48.328;7.820;2023-04-12T07:45:46;98665.41;;;13.88
77331;BMP280;66405;48.328;7.820;2023-04-12T07:48:12;98660.94;;;13.91
77331;BMP280;66405;48.328;7.820;2023-04-12T07:50:38;98657.50;;;13.96
77331;BMP280;66405;48.328;7.820;2023-04-12T07:53:24;98652.03;;;14.02
77331;BMP280;66405;48.328;7.820;2023-04-12T07:55:51;98646.59;;;14.07
77331;BMP280;66405;48.328;7.820;2023-04-12T07:58:22;98635.47;;;14.11
77331;BMP280;66405;48.328;7.820;2023-04-12T08:00:49;98631.75;;;14.14
77331;BMP280;66405;48.328;7.820;2023-04-12T08:03:17;98628.03;;;14.17
77331;BMP280;66405;48.328;7.820;2023-04-12T08:05:45;98638.63;;;14.21
77331;BMP280;66405;48.328;7.820;2023-04-12T08:08:18;98637.63;;;14.24
77331;BMP280;66405;48.328;7.820;2023-04-12T08:10:43;98641.34;;;14.26
77331;BMP280;66405;48.328;7.820;2023-04-12T08:13:09;98634.91;;;14.30
77331;BMP280;66405;48.328;7.820;2023-04-12T08:15:36;98638.06;;;14.34
77331;BMP280;66405;48.328;7.820;2023-04-12T08:18:03;98637.59;;;14.35
77331;BMP280;66405;48.328;7.820;2023-04-12T08:20:29;98638.31;;;14.36
77331;BMP280;66405;48.328;7.820;2023-04-12T08:22:54;98653.63;;;14.39
77331;BMP280;66405;48.328;7.820;2023-04-12T08:25:20;98645.94;;;14.43
77331;BMP280;66405;48.328;7.820;2023-04-12T08:27:48;98649.38;;;14.49
77331;BMP280;66405;48.328;7.820;2023-04-12T08:30:13;98644.41;;;14.53
77331;BMP280;66405;48.328;7.820;2023-04-12T08:32:39;98650.09;;;14.55
77331;BMP280;66405;48.328;7.820;2023-04-12T08:35:06;98651.56;;;14.56
77331;BMP280;66405;48.328;7.820;2023-04-12T08:37:32;98646.84;;;14.57
77331;BMP280;66405;48.328;7.820;2023-04-12T08:40:05;98643.84;;;14.60
77331;BMP280;66405;48.328;7.820;2023-04-12T08:42:34;98653.47;;;14.67
77331;BMP280;66405;48.328;7.820;2023-04-12T08:45:04;98652.69;;;14.72
77331;BMP280;66405;48.328;7.820;2023-04-12T08:47:31;98664.03;;;14.76
77331;BMP280;66405;48.328;7.820;2023-04-12T08:50:00;98661.28;;;14.82
77331;BMP280;66405;48.328;7.820;2023-04-12T08:52:26;98663.44;;;14.89
77331;BMP280;66405;48.328;7.820;2023-04-12T08:54:54;98653.53;;;14.98
77331;BMP280;66405;48.328;7.820;2023-04-12T08:57:19;98643.34;;;15.04
77331;BMP280;66405;48.328;7.820;2023-04-12T08:59:47;98648.47;;;15.07
77331;BMP280;66405;48.328;7.820;2023-04-12T09:02:14;98654.63;;;15.13
77331;BMP280;66405;48.328;7.820;2023-04-12T09:04:49;98660.00;;;15.19
77331;BMP280;66405;48.328;7.820;2023-04-12T09:07:15;98666.66;;;15.24
77331;BMP280;66405;48.328;7.820;2023-04-12T09:09:45;98650.06;;;15.27
77331;BMP280;66405;48.328;7.820;2023-04-12T09:12:12;98656.25;;;15.28
77331;BMP280;66405;48.328;7.820;2023-04-12T09:14:39;98646.84;;;15.29
77331;BMP280;66405;48.328;7.820;2023-04-12T09:17:20;98646.66;;;15.21
77331;BMP280;66405;48.328;7.820;2023-04-12T09:19:47;98638.03;;;15.17
77331;BMP280;66405;48.328;7.820;2023-04-12T09:22:13;98638.28;;;15.13
77331;BMP280;66405;48.328;7.820;2023-04-12T09:24:48;98633.34;;;15.12
77331;BMP280;66405;48.328;7.820;2023-04-12T09:27:15;98627.41;;;15.13
77331;BMP280;66405;48.328;7.820;2023-04-12T09:29:41;98619.72;;;15.18
77331;BMP280;66405;48.328;7.820;2023-04-12T09:32:07;98619.44;;;15.21
77331;BMP280;66405;48.328;7.820;2023-04-12T09:34:34;98632.03;;;15.24
77331;BMP280;66405;48.328;7.820;2023-04-12T09:37:13;98622.84;;;15.27
77331;BMP280;66405;48.328;7.820;2023-04-12T09:39:42;98610.97;;;15.25
77331;BMP280;66405;48.328;7.820;2023-04-12T09:42:09;98621.38;;;15.26
77331;BMP280;66405;48.328;7.820;2023-04-12T09:44:36;98611.94;;;15.27
77331;BMP280;66405;48.328;7.820;2023-04-12T09:47:02;98623.88;;;15.24
77331;BMP280;66405;48.328;7.820;2023-04-12T09:49:42;98626.38;;;15.22
77331;BMP280;66405;48.328;7.820;2023-04-12T09:52:11;98621.91;;;15.19
77331;BMP280;66405;48.328;7.820;2023-04-12T09:54:45;98608.03;;;15.23
77331;BMP280;66405;48.328;7.820;2023-04-12T09:57:12;98609.19;;;15.33
77331;BMP280;66405;48.328;7.820;2023-04-12T09:59:39;98607.34;;;15.41
77331;BMP280;66405;48.328;7.820;2023-04-12T10:02:08;98598.38;;;15.52
77331;BMP280;66405;48.328;7.820;2023-04-12T10:04:36;98605.44;;;15.61
77331;BMP280;66405;48.328;7.820;2023-04-12T10:07:04;98609.28;;;15.71
77331;BMP280;66405;48.328;7.820;2023-04-12T10:09:31;98608.41;;;15.82
77331;BMP280;66405;48.328;7.820;2023-04-12T10:11:57;98610.09;;;15.85
77331;BMP280;66405;48.328;7.820;2023-04-12T10:14:26;98602.69;;;15.86
77331;BMP280;66405;48.328;7.820;2023-04-12T10:16:56;98597.53;;;15.82
77331;BMP280;66405;48.328;7.820;2023-04-12T10:19:24;98598.03;;;15.80
77331;BMP280;66405;48.328;7.820;2023-04-12T10:21:50;98605.94;;;15.84
77331;BMP280;66405;48.328;7.820;2023-04-12T10:24:15;98591.94;;;15.93
77331;BMP280;66405;48.328;7.820;2023-04-12T10:26:42;98591.84;;;15.99
77331;BMP280;66405;48.328;7.820;2023-04-12T10:29:37;98591.84;;;15.99
77331;BMP280;66405;48.328;7.820;2023-04-12T10:34:54;98576.97;;;16.00
77331;BMP280;66405;48.328;7.820;2023-04-12T10:37:21;98577.75;;;16.00
77331;BMP280;66405;48.328;7.820;2023-04-12T10:39:52;98577.75;;;16.00
77331;BMP280;66405;48.328;7.820;2023-04-12T10:42:22;98572.94;;;16.07
77331;BMP280;66405;48.328;7.820;2023-04-12T10:44:50;98566.91;;;16.14
77331;BMP280;66405;48.328;7.820;2023-04-12T10:55:43;98560.16;;;16.02
77331;BMP280;66405;48.328;7.820;2023-04-12T11:01:12;98554.63;;;16.07
77331;BMP280;66405;48.328;7.820;2023-04-12T11:05:02;98554.44;;;16.18
77331;BMP280;66405;48.328;7.820;2023-04-12T11:07:02;98543.06;;;16.33
77331;BMP280;66405;48.328;7.820;2023-04-12T11:09:56;98540.31;;;16.52
77331;BMP280;66405;48.328;7.820;2023-04-12T11:12:26;98546.84;;;16.63
77331;BMP280;66405;48.328;7.820;2023-04-12T11:14:58;98532.38;;;16.68
77331;BMP280;66405;48.328;7.820;2023-04-12T11:17:32;98533.13;;;16.82
77331;BMP280;66405;48.328;7.820;2023-04-12T11:20:00;98531.78;;;16.88
77331;BMP280;66405;48.328;7.820;2023-04-12T11:22:31;98529.25;;;16.91
77331;BMP280;66405;48.328;7.820;2023-04-12T11:24:59;98534.72;;;17.04
77331;BMP280;66405;48.328;7.820;2023-04-12T11:27:26;98521.06;;;17.17
77331;BMP280;66405;48.328;7.820;2023-04-12T11:29:54;98513.38;;;17.43
77331;BMP280;66405;48.328;7.820;2023-04-12T11:32:22;98518.19;;;17.63
77331;BMP280;66405;48.328;7.820;2023-04-12T11:34:49;98528.41;;;17.84
77331;BMP280;66405;48.328;7.820;2023-04-12T11:37:18;98541.25;;;18.10
77331;BMP280;66405;48.328;7.820;2023-04-12T11:39:45;98526.13;;;18.09
77331;BMP280;66405;48.328;7.820;2023-04-12T11:42:13;98522.69;;;17.95
77331;BMP280;66405;48.328;7.820;2023-04-12T11:44:45;98510.25;;;17.86
77331;BMP280;66405;48.328;7.820;2023-04-12T11:47:19;98499.00;;;17.76
77331;BMP280;66405;48.328;7.820;2023-04-12T11:49:49;98503.16;;;17.70
77331;BMP280;66405;48.328;7.820;2023-04-12T11:52:17;98503.59;;;17.61
77331;BMP280;66405;48.328;7.820;2023-04-12T11:54:44;98503.19;;;17.43
77331;BMP280;66405;48.328;7.820;2023-04-12T11:57:11;98488.22;;;17.23
77331;BMP280;66405;48.328;7.820;2023-04-12T11:59:37;98484.09;;;17.16
77331;BMP280;66405;48.328;7.820;2023-04-12T12:02:07;98484.56;;;17.20
77331;BMP280;66405;48.328;7.820;2023-04-12T12:04:35;98475.19;;;17.16
77331;BMP280;66405;48.328;7.820;2023-04-12T12:07:01;98464.94;;;17.09
77331;BMP280;66405;48.328;7.820;2023-04-12T12:09:28;98465.53;;;17.01
77331;BMP280;66405;48.328;7.820;2023-04-12T12:11:55;98460.63;;;17.00
77331;BMP280;66405;48.328;7.820;2023-04-12T12:14:22;98455.72;;;16.98
77331;BMP280;66405;48.328;7.820;2023-04-12T12:16:55;98455.38;;;17.02
77331;BMP280;66405;48.328;7.820;2023-04-12T12:19:36;98456.00;;;17.08
77331;BMP280;66405;48.328;7.820;2023-04-12T12:22:16;98468.28;;;17.15
77331;BMP280;66405;48.328;7.820;2023-04-12T12:24:54;98470.25;;;17.14
77331;BMP280;66405;48.328;7.820;2023-04-12T12:29:54;98461.88;;;16.99
77331;BMP280;66405;48.328;7.820;2023-04-12T12:32:20;98467.06;;;16.89
77331;BMP280;66405;48.328;7.820;2023-04-12T12:34:54;98465.16;;;16.84
77331;BMP280;66405;48.328;7.820;2023-04-12T12:37:23;98463.69;;;16.83
77331;BMP280;66405;48.328;7.820;2023-04-12T12:40:11;98460.72;;;16.81
77331;BMP280;66405;48.328;7.820;2023-04-12T12:42:53;98453.63;;;16.78
77331;BMP280;66405;48.328;7.820;2023-04-12T12:45:21;98453.63;;;16.78
77331;BMP280;66405;48.328;7.820;2023-04-12T12:47:57;98447.84;;;16.81
77331;BMP280;66405;48.328;7.820;2023-04-12T12:50:25;98440.81;;;16.86
77331;BMP280;66405;48.328;7.820;2023-04-12T12:52:52;98436.19;;;16.94
77331;BMP280;66405;48.328;7.820;2023-04-12T12:55:19;98438.25;;;17.01
77331;BMP280;66405;48.328;7.820;2023-04-12T12:57:46;98445.19;;;17.02
77331;BMP280;66405;48.328;7.820;2023-04-12T13:00:14;98436.78;;;17.00
77331;BMP280;66405;48.328;7.820;2023-04-12T13:02:43;98422.09;;;17.03
77331;BMP280;66405;48.328;7.820;2023-04-12T13:05:10;98423.03;;;17.19
77331;BMP280;66405;48.328;7.820;2023-04-12T13:07:36;98405.63;;;17.44
77331;BMP280;66405;48.328;7.820;2023-04-12T13:10:03;98429.03;;;17.73
77331;BMP280;66405;48.328;7.820;2023-04-12T13:12:30;98409.44;;;18.04
77331;BMP280;66405;48.328;7.820;2023-04-12T13:14:56;98402.16;;;18.27
77331;BMP280;66405;48.328;7.820;2023-04-12T13:17:22;98401.94;;;18.54
77331;BMP280;66405;48.328;7.820;2023-04-12T13:19:48;98399.72;;;18.89
77331;BMP280;66405;48.328;7.820;2023-04-12T13:22:14;98399.25;;;19.06
77331;BMP280;66405;48.328;7.820;2023-04-12T13:24:41;98416.22;;;19.05
77331;BMP280;66405;48.328;7.820;2023-04-12T13:27:07;98416.38;;;18.99
77331;BMP280;66405;48.328;7.820;2023-04-12T13:29:33;98411.41;;;18.90
77331;BMP280;66405;48.328;7.820;2023-04-12T13:32:02;98419.28;;;18.93
77331;BMP280;66405;48.328;7.820;2023-04-12T13:34:28;98428.75;;;18.92
77331;BMP280;66405;48.328;7.820;2023-04-12T13:36:54;98417.84;;;19.00
77331;BMP280;66405;48.328;7.820;2023-04-12T13:39:20;98423.69;;;19.04
77331;BMP280;66405;48.328;7.820;2023-04-12T13:41:45;98425.03;;;19.18
77331;BMP280;66405;48.328;7.820;2023-04-12T13:44:12;98393.47;;;19.41
77331;BMP280;66405;48.328;7.820;2023-04-12T13:46:37;98386.19;;;19.59
77331;BMP280;66405;48.328;7.820;2023-04-12T13:49:03;98386.19;;;19.59
77331;BMP280;66405;48.328;7.820;2023-04-12T13:51:28;98392.94;;;19.50
77331;BMP280;66405;48.328;7.820;2023-04-12T13:53:54;98384.50;;;19.25
77331;BMP280;66405;48.328;7.820;2023-04-12T13:56:20;98395.19;;;18.99
77331;BMP280;66405;48.328;7.820;2023-04-12T13:58:47;98413.69;;;18.70
77331;BMP280;66405;48.328;7.820;2023-04-12T14:01:12;98480.81;;;18.42
77331;BMP280;66405;48.328;7.820;2023-04-12T14:03:38;98571.38;;;17.97
77331;BMP280;66405;48.328;7.820;2023-04-12T14:06:07;98577.03;;;16.97
77331;BMP280;66405;48.328;7.820;2023-04-12T14:08:33;98566.38;;;15.77
77331;BMP280;66405;48.328;7.820;2023-04-12T14:10:59;98568.31;;;14.84
77331;BMP280;66405;48.328;7.820;2023-04-12T14:13:25;98568.03;;;14.09
77331;BMP280;66405;48.328;7.820;2023-04-12T14:15:54;98547.56;;;13.44
77331;BMP280;66405;48.328;7.820;2023-04-12T14:18:20;98540.25;;;12.99
77331;BMP280;66405;48.328;7.820;2023-04-12T14:20:50;98548.09;;;12.63
77331;BMP280;66405;48.328;7.820;2023-04-12T14:23:22;98561.59;;;12.29
77331;BMP280;66405;48.328;7.820;2023-04-12T14:25:51;98573.31;;;12.03
77331;BMP280;66405;48.328;7.820;2023-04-12T14:28:17;98560.66;;;11.83
77331;BMP280;66405;48.328;7.820;2023-04-12T14:30:46;98564.31;;;11.75
77331;BMP280;66405;48.328;7.820;2023-04-12T14:33:14;98554.69;;;11.68
77331;BMP280;66405;48.328;7.820;2023-04-12T14:35:40;98557.88;;;11.66
77331;BMP280;66405;48.328;7.820;2023-04-12T14:38:06;98554.69;;;11.68
77331;BMP280;66405;48.328;7.820;2023-04-12T14:40:33;98555.22;;;11.78
77331;BMP280;66405;48.328;7.820;2023-04-12T14:43:01;98571.56;;;11.95
77331;BMP280;66405;48.328;7.820;2023-04-12T14:45:26;98563.97;;;12.10
77331;BMP280;66405;48.328;7.820;2023-04-12T14:47:53;98550.28;;;12.36
77331;BMP280;66405;48.328;7.820;2023-04-12T14:50:19;98555.00;;;12.70